East Keating, Pennsylvania
Current Conditions -  °F | °C
As of 8:54 PM on Sunday 21 Dec 2014 (Local Time) from KFIG Reporting Station
Clear Clear  
Wind Chill: -10°   Ceiling: Unl
Heat Index: -6°   Visibility: 10mi
Dew Point: -7°   Wind: 6mph
Humidity: 89%   Direction: 30°NNE
Pressure: 30.24"   Gusts: NA
Location:  41.3342°N, 77.9676°W
Report Text: KFIG 220154Z AUTO 03005KT 10SM CLR M06/M07 A3024 RMK AO2 SLP263 T10561072
Loading
Personal Weather Stations






























Interactive Weather Map New forecast layout! Learn more

10-Day Weather Forecast

Advertisements
Track Severe Weather on mobile